Elst, Netherlands
Current Conditions -  °F | °C
As of 6:55 AM on Friday 28 Nov 2014 (Local Time) from EHDL Reporting Station
Haze Haze  
Wind Chill: 36°   Ceiling: Unl
Heat Index: 41°   Visibility: 2.8mi
Dew Point: 41°   Wind: 8mph
Humidity: 100%   Direction: 90°E
Pressure: 29.77"   Gusts: NA
Location:  51.92°N, 5.84°E
Report Text: EHDL 280555Z AUTO 09007KT 4600 BR FEW005 SCT087 05/05 Q1008 GRN
Loading
Personal Weather Stations






























Interactive Weather Map New forecast layout! Learn more

10-Day Weather Forecast

Advertisements
Track Severe Weather on mobile